Time;durP1;ratioP1;P1;durP2;ratioP2;P2;SDS_P1;SDS_P2;PMS_P1;PMS_P2;Temp;Humidity;BMP_temperature;BMP_pressure;BME280_temperature;BME280_humidity;BME280_pressure;Samples;Min_cycle;Max_cycle;Signal;HPM_P1;HPM_P2
2022/11/09 00:00:02;;;;;;;6.22;1.55;;;;;;;;;;5044849;28;20313;-78
2022/11/09 00:02:28;;;;;;;8.40;1.90;;;;;;;;;;5042894;28;20071;-77
2022/11/09 00:04:53;;;;;;;3.70;1.70;;;;;;;;;;5040833;28;20817;-77
2022/11/09 00:07:18;;;;;;;3.78;1.70;;;;;;;;;;5043233;28;21258;-77
2022/11/09 00:09:43;;;;;;;4.83;2.20;;;;;;;;;;5041384;28;20021;-78
2022/11/09 00:12:08;;;;;;;5.37;1.90;;;;;;;;;;5037659;28;21150;-78
2022/11/09 00:14:34;;;;;;;3.30;1.70;;;;;;;;;;5028472;28;21241;-76
2022/11/09 00:17:00;;;;;;;5.50;1.83;;;;;;;;;;5038637;28;21052;-78
2022/11/09 00:19:25;;;;;;;4.82;1.90;;;;;;;;;;5044153;28;20023;-77
2022/11/09 00:21:50;;;;;;;3.17;1.90;;;;;;;;;;5041570;28;20016;-77
2022/11/09 00:24:15;;;;;;;4.27;2.00;;;;;;;;;;5042155;28;20031;-81
2022/11/09 00:26:41;;;;;;;5.80;1.92;;;;;;;;;;5030584;28;20286;-79
2022/11/09 00:29:06;;;;;;;3.25;1.63;;;;;;;;;;5045007;28;20027;-75
2022/11/09 00:31:31;;;;;;;4.97;1.95;;;;;;;;;;5052585;28;20888;-79
2022/11/09 00:33:57;;;;;;;5.78;2.60;;;;;;;;;;5052955;28;20452;-80
2022/11/09 00:36:23;;;;;;;3.85;1.45;;;;;;;;;;5032681;28;20028;-77
2022/11/09 00:38:50;;;;;;;4.93;1.63;;;;;;;;;;5057276;28;20016;-78
2022/11/09 00:41:16;;;;;;;4.55;1.83;;;;;;;;;;5057808;28;20085;-77
2022/11/09 00:43:41;;;;;;;4.35;1.85;;;;;;;;;;5045531;28;20032;-80
2022/11/09 00:46:06;;;;;;;3.53;1.80;;;;;;;;;;5047051;28;20017;-75
2022/11/09 00:48:32;;;;;;;3.70;1.73;;;;;;;;;;5027372;28;20033;-75
2022/11/09 00:50:58;;;;;;;5.85;2.00;;;;;;;;;;5025806;28;20016;-77
2022/11/09 00:53:23;;;;;;;9.15;2.13;;;;;;;;;;5037201;28;20110;-73
2022/11/09 00:55:52;;;;;;;4.07;1.88;;;;;;;;;;5038706;28;20021;-76
2022/11/09 00:58:17;;;;;;;5.25;2.03;;;;;;;;;;5036903;28;20024;-76
2022/11/09 01:00:43;;;;;;;5.07;1.73;;;;;;;;;;5039024;28;20934;-76
2022/11/09 01:03:08;;;;;;;3.40;1.60;;;;;;;;;;5036507;28;21101;-76
2022/11/09 01:05:33;;;;;;;6.07;1.93;;;;;;;;;;5039765;28;20924;-76
2022/11/09 01:07:58;;;;;;;3.50;1.80;;;;;;;;;;5036787;28;20283;-78
2022/11/09 01:10:23;;;;;;;13.63;2.03;;;;;;;;;;5063756;28;20871;-76
2022/11/09 01:12:49;;;;;;;4.97;1.87;;;;;;;;;;5034007;28;20020;-76
2022/11/09 01:15:14;;;;;;;3.90;1.73;;;;;;;;;;5037607;28;20270;-76
2022/11/09 01:17:39;;;;;;;4.60;1.90;;;;;;;;;;5042093;28;20254;-75
2022/11/09 01:20:05;;;;;;;3.83;1.70;;;;;;;;;;5035635;28;20267;-79
2022/11/09 01:22:30;;;;;;;6.78;2.13;;;;;;;;;;5035705;28;20877;-75
2022/11/09 01:24:55;;;;;;;5.68;1.90;;;;;;;;;;5033218;28;20012;-76
2022/11/09 01:27:20;;;;;;;7.90;2.17;;;;;;;;;;5041076;28;20040;-75
2022/11/09 01:29:46;;;;;;;4.45;2.13;;;;;;;;;;5044524;28;20016;-76
2022/11/09 01:32:11;;;;;;;4.33;1.90;;;;;;;;;;5051396;28;20028;-76
2022/11/09 01:34:36;;;;;;;7.50;2.67;;;;;;;;;;5038603;28;21216;-76
2022/11/09 01:37:01;;;;;;;5.88;2.05;;;;;;;;;;5042702;28;20032;-75
2022/11/09 01:39:27;;;;;;;6.70;2.10;;;;;;;;;;5038959;28;20901;-77
2022/11/09 01:41:52;;;;;;;4.55;1.73;;;;;;;;;;5033782;28;20023;-75
2022/11/09 01:44:18;;;;;;;5.10;2.20;;;;;;;;;;5040747;28;20043;-78
2022/11/09 01:46:46;;;;;;;7.40;2.10;;;;;;;;;;5041211;28;21196;-77
2022/11/09 01:49:18;;;;;;;5.82;2.55;;;;;;;;;;5033631;28;20039;-76
2022/11/09 01:51:50;;;;;;;7.93;1.95;;;;;;;;;;5039090;28;20068;-76
2022/11/09 01:54:20;;;;;;;7.55;2.50;;;;;;;;;;5038515;28;20021;-74
2022/11/09 01:56:47;;;;;;;6.13;2.22;;;;;;;;;;5033739;28;20044;-77
2022/11/09 01:59:23;;;;;;;5.22;2.13;;;;;;;;;;5037664;28;20796;-75
2022/11/09 02:01:49;;;;;;;8.35;2.35;;;;;;;;;;5035733;28;20016;-75
2022/11/09 02:04:27;;;;;;;3.05;1.65;;;;;;;;;;5036534;28;20814;-74
2022/11/09 02:06:53;;;;;;;6.32;2.00;;;;;;;;;;5035884;28;20055;-74
2022/11/09 02:09:42;;;;;;;7.55;2.70;;;;;;;;;;5034976;28;20027;-76
2022/11/09 02:12:07;;;;;;;6.45;2.10;;;;;;;;;;5030746;28;20032;-73
2022/11/09 02:14:34;;;;;;;4.97;1.80;;;;;;;;;;5032716;28;20107;-75
2022/11/09 02:16:59;;;;;;;6.72;1.98;;;;;;;;;;5043205;28;20035;-76
2022/11/09 02:19:24;;;;;;;7.45;2.13;;;;;;;;;;5035976;28;20044;-75
2022/11/09 02:21:50;;;;;;;6.27;2.63;;;;;;;;;;5058005;28;20351;-76
2022/11/09 02:24:16;;;;;;;7.03;2.47;;;;;;;;;;5082078;28;20815;-80
2022/11/09 02:26:43;;;;;;;7.53;2.40;;;;;;;;;;5073941;28;20024;-79
2022/11/09 02:29:10;;;;;;;5.70;2.33;;;;;;;;;;5073842;28;20438;-75
2022/11/09 02:31:38;;;;;;;7.05;2.47;;;;;;;;;;5082650;28;20017;-76
2022/11/09 02:34:12;;;;;;;5.80;2.35;;;;;;;;;;5088270;28;20066;-76
2022/11/09 02:36:37;;;;;;;3.83;2.00;;;;;;;;;;5076685;28;20028;-76
2022/11/09 02:39:02;;;;;;;8.95;2.40;;;;;;;;;;5083242;28;20620;-77
2022/11/09 02:41:29;;;;;;;7.00;2.33;;;;;;;;;;5086882;28;20051;-76
2022/11/09 02:43:54;;;;;;;5.90;2.17;;;;;;;;;;5073833;28;20078;-76
2022/11/09 02:46:24;;;;;;;4.65;1.80;;;;;;;;;;5080413;28;20024;-77
2022/11/09 02:48:49;;;;;;;7.20;2.33;;;;;;;;;;5063775;28;20378;-81
2022/11/09 02:51:14;;;;;;;4.45;1.95;;;;;;;;;;5069959;28;20023;-77
2022/11/09 02:53:39;;;;;;;5.90;2.57;;;;;;;;;;5078920;28;20145;-78
2022/11/09 02:56:05;;;;;;;6.80;2.90;;;;;;;;;;5079392;28;20400;-80
2022/11/09 02:58:30;;;;;;;7.40;2.33;;;;;;;;;;5084729;28;20290;-78
2022/11/09 03:00:55;;;;;;;8.00;2.75;;;;;;;;;;5073702;28;20017;-77
2022/11/09 03:03:21;;;;;;;5.77;2.27;;;;;;;;;;5087386;28;20016;-78
2022/11/09 03:05:46;;;;;;;6.53;2.27;;;;;;;;;;5073266;28;20473;-78
2022/11/09 03:08:11;;;;;;;5.67;1.93;;;;;;;;;;5073113;28;20812;-77
2022/11/09 03:10:36;;;;;;;7.40;2.13;;;;;;;;;;5075931;28;20310;-80
2022/11/09 03:13:01;;;;;;;6.22;2.42;;;;;;;;;;5084157;28;20298;-78
2022/11/09 03:15:27;;;;;;;6.03;2.57;;;;;;;;;;5073294;28;20422;-81
2022/11/09 03:17:52;;;;;;;6.77;2.27;;;;;;;;;;5073097;28;20617;-78
2022/11/09 03:20:17;;;;;;;8.17;2.30;;;;;;;;;;5072880;28;20284;-78
2022/11/09 03:22:42;;;;;;;5.33;1.77;;;;;;;;;;5072965;28;20297;-79
2022/11/09 03:25:08;;;;;;;5.50;2.07;;;;;;;;;;5071901;28;20779;-77
2022/11/09 03:27:33;;;;;;;9.15;2.08;;;;;;;;;;5056341;28;20313;-81
2022/11/09 03:29:58;;;;;;;4.43;1.83;;;;;;;;;;5061639;28;20528;-79
2022/11/09 03:32:23;;;;;;;7.80;2.53;;;;;;;;;;5068796;28;20290;-83
2022/11/09 03:34:50;;;;;;;6.07;2.67;;;;;;;;;;5072872;28;20293;-78
2022/11/09 03:37:15;;;;;;;5.93;2.05;;;;;;;;;;5084029;28;20320;-76
2022/11/09 03:39:40;;;;;;;8.30;1.85;;;;;;;;;;5062679;28;20028;-79
2022/11/09 03:42:06;;;;;;;8.17;2.03;;;;;;;;;;5072410;28;20028;-80
2022/11/09 03:44:31;;;;;;;5.10;1.87;;;;;;;;;;5072381;28;20675;-78
2022/11/09 03:46:56;;;;;;;11.27;2.57;;;;;;;;;;5060959;28;20753;-77
2022/11/09 03:49:22;;;;;;;6.45;2.45;;;;;;;;;;5065615;28;20338;-81
2022/11/09 03:51:47;;;;;;;6.45;2.38;;;;;;;;;;5072503;28;20024;-79
2022/11/09 03:54:13;;;;;;;6.70;2.58;;;;;;;;;;5060531;28;20017;-79
2022/11/09 03:56:38;;;;;;;10.97;2.43;;;;;;;;;;5066473;28;20094;-78
2022/11/09 03:59:03;;;;;;;5.27;2.20;;;;;;;;;;5052827;28;20275;-79
2022/11/09 04:01:28;;;;;;;5.43;2.72;;;;;;;;;;5069171;28;20267;-78
2022/11/09 04:03:54;;;;;;;8.80;2.20;;;;;;;;;;5072887;28;20512;-81
2022/11/09 04:06:19;;;;;;;6.72;2.60;;;;;;;;;;5071082;28;20740;-75
2022/11/09 04:08:44;;;;;;;7.32;2.75;;;;;;;;;;5070488;28;20040;-77
2022/11/09 04:11:09;;;;;;;7.70;2.90;;;;;;;;;;5071328;28;20017;-76
2022/11/09 04:13:34;;;;;;;7.35;2.67;;;;;;;;;;5072342;28;20353;-76
2022/11/09 04:16:00;;;;;;;11.43;2.77;;;;;;;;;;5071077;28;20351;-76
2022/11/09 04:18:25;;;;;;;10.80;2.33;;;;;;;;;;5070039;28;20772;-76
2022/11/09 04:20:50;;;;;;;9.13;2.70;;;;;;;;;;5059498;28;20776;-76
2022/11/09 04:23:15;;;;;;;6.00;2.43;;;;;;;;;;5071906;28;20982;-76
2022/11/09 04:25:41;;;;;;;4.47;2.25;;;;;;;;;;5058022;28;20262;-76
2022/11/09 04:28:07;;;;;;;7.35;2.50;;;;;;;;;;5072032;28;20027;-79
2022/11/09 04:30:33;;;;;;;6.43;1.90;;;;;;;;;;5072257;28;20023;-76
2022/11/09 04:32:58;;;;;;;16.23;2.90;;;;;;;;;;5071845;28;20138;-80
2022/11/09 04:35:25;;;;;;;6.70;2.22;;;;;;;;;;5071373;28;20107;-77
2022/11/09 04:37:57;;;;;;;16.55;2.50;;;;;;;;;;5068841;28;20039;-76
2022/11/09 04:40:23;;;;;;;8.63;2.67;;;;;;;;;;5071875;28;20019;-81
2022/11/09 04:42:49;;;;;;;4.05;2.00;;;;;;;;;;5085581;28;20024;-80
2022/11/09 04:45:14;;;;;;;4.40;2.10;;;;;;;;;;5072152;28;20013;-79
2022/11/09 04:47:39;;;;;;;7.00;2.55;;;;;;;;;;5057570;28;20096;-80
2022/11/09 04:50:05;;;;;;;5.40;2.10;;;;;;;;;;5071502;28;20099;-80
2022/11/09 04:52:31;;;;;;;10.65;2.13;;;;;;;;;;5055627;28;20306;-83
2022/11/09 04:54:56;;;;;;;7.68;2.35;;;;;;;;;;5070905;28;20024;-82
2022/11/09 04:57:21;;;;;;;5.82;2.42;;;;;;;;;;5031259;28;20990;-79
2022/11/09 04:59:46;;;;;;;8.70;2.47;;;;;;;;;;5041954;28;20019;-78
2022/11/09 05:02:11;;;;;;;6.50;2.13;;;;;;;;;;5025175;28;20124;-79
2022/11/09 05:04:37;;;;;;;9.87;3.30;;;;;;;;;;5033209;28;20271;-79
2022/11/09 05:07:02;;;;;;;5.22;2.60;;;;;;;;;;5034900;28;20356;-79
2022/11/09 05:09:27;;;;;;;9.67;2.90;;;;;;;;;;5066633;28;20474;-81
2022/11/09 05:11:52;;;;;;;5.23;2.23;;;;;;;;;;5074422;28;20772;-78
2022/11/09 05:14:18;;;;;;;7.97;2.40;;;;;;;;;;5080541;28;20712;-75
2022/11/09 05:16:43;;;;;;;6.13;2.77;;;;;;;;;;5066953;28;20375;-78
2022/11/09 05:19:08;;;;;;;5.70;2.30;;;;;;;;;;5064425;28;20263;-77
2022/11/09 05:21:33;;;;;;;9.20;2.85;;;;;;;;;;5071038;28;20023;-79
2022/11/09 05:23:59;;;;;;;7.90;2.30;;;;;;;;;;5051493;28;20049;-80
2022/11/09 05:26:31;;;;;;;6.90;2.22;;;;;;;;;;5075193;28;20274;-77
2022/11/09 05:28:58;;;;;;;9.25;2.30;;;;;;;;;;5072224;28;20032;-78
2022/11/09 05:31:23;;;;;;;6.35;3.00;;;;;;;;;;5059701;28;20166;-80
2022/11/09 05:33:50;;;;;;;7.97;2.55;;;;;;;;;;5081510;28;20052;-79
2022/11/09 05:36:15;;;;;;;7.05;2.42;;;;;;;;;;5078237;28;20028;-78
2022/11/09 05:38:40;;;;;;;8.60;2.47;;;;;;;;;;5085980;28;20379;-78
2022/11/09 05:41:05;;;;;;;7.63;2.10;;;;;;;;;;5088934;28;20024;-79
2022/11/09 05:43:30;;;;;;;6.60;2.10;;;;;;;;;;5081190;28;20308;-79
2022/11/09 05:45:56;;;;;;;6.70;2.13;;;;;;;;;;5083111;28;20379;-76
2022/11/09 05:48:21;;;;;;;9.33;2.67;;;;;;;;;;5061396;28;20361;-78
2022/11/09 05:50:46;;;;;;;13.03;2.47;;;;;;;;;;5062840;28;20682;-75
2022/11/09 05:53:11;;;;;;;7.47;2.60;;;;;;;;;;5067245;28;20749;-80
2022/11/09 05:55:37;;;;;;;7.35;2.38;;;;;;;;;;5064200;28;20024;-80
2022/11/09 05:58:02;;;;;;;9.13;2.45;;;;;;;;;;5066822;28;20088;-80
2022/11/09 06:00:27;;;;;;;7.45;2.22;;;;;;;;;;5040321;28;20132;-82
2022/11/09 06:02:53;;;;;;;8.13;2.53;;;;;;;;;;5043304;28;20020;-75
2022/11/09 06:05:19;;;;;;;7.60;2.07;;;;;;;;;;5046897;28;20263;-79
2022/11/09 06:07:44;;;;;;;11.27;2.45;;;;;;;;;;5041364;28;20295;-80
2022/11/09 06:10:10;;;;;;;6.75;2.25;;;;;;;;;;5040870;28;20029;-75
2022/11/09 06:12:35;;;;;;;6.97;2.42;;;;;;;;;;5043969;28;20026;-79
2022/11/09 06:15:00;;;;;;;6.17;2.37;;;;;;;;;;5065571;28;20091;-77
2022/11/09 06:17:25;;;;;;;8.90;2.17;;;;;;;;;;5067349;28;20756;-78
2022/11/09 06:19:51;;;;;;;6.63;2.75;;;;;;;;;;5074918;28;20532;-78
2022/11/09 06:22:16;;;;;;;5.97;1.67;;;;;;;;;;5061272;28;20021;-78
2022/11/09 06:24:41;;;;;;;7.90;2.22;;;;;;;;;;5064433;28;20284;-75
2022/11/09 06:27:07;;;;;;;6.32;2.22;;;;;;;;;;5055867;28;20033;-80
2022/11/09 06:29:32;;;;;;;5.93;2.15;;;;;;;;;;5055853;28;20024;-80
2022/11/09 06:31:57;;;;;;;9.50;2.40;;;;;;;;;;5062019;28;20017;-79
2022/11/09 06:34:22;;;;;;;4.43;2.43;;;;;;;;;;5058432;28;20039;-81
2022/11/09 06:36:48;;;;;;;8.00;2.53;;;;;;;;;;5071490;28;20274;-79
2022/11/09 06:39:13;;;;;;;6.07;2.22;;;;;;;;;;5055302;28;20271;-80
2022/11/09 06:41:38;;;;;;;5.20;2.50;;;;;;;;;;5070473;28;20020;-80
2022/11/09 06:44:07;;;;;;;6.63;2.17;;;;;;;;;;5060706;28;20278;-80
2022/11/09 06:46:32;;;;;;;5.68;1.90;;;;;;;;;;5053416;28;20277;-81
2022/11/09 06:48:58;;;;;;;5.85;2.28;;;;;;;;;;5053591;28;20041;-80
2022/11/09 06:51:23;;;;;;;6.80;2.42;;;;;;;;;;5046727;28;20050;-80
2022/11/09 06:53:48;;;;;;;9.23;2.23;;;;;;;;;;5056863;28;20059;-80
2022/11/09 06:56:13;;;;;;;6.20;2.50;;;;;;;;;;5055509;28;20344;-79
2022/11/09 06:58:38;;;;;;;5.63;2.08;;;;;;;;;;5056049;28;20275;-80
2022/11/09 07:01:11;;;;;;;4.60;2.15;;;;;;;;;;5056304;28;20442;-80
2022/11/09 07:03:36;;;;;;;6.88;2.92;;;;;;;;;;5074974;28;20391;-80
2022/11/09 07:06:05;;;;;;;6.50;2.47;;;;;;;;;;5045961;28;20059;-79
2022/11/09 07:08:31;;;;;;;6.82;2.65;;;;;;;;;;5050590;28;20055;-77
2022/11/09 07:11:01;;;;;;;5.35;2.20;;;;;;;;;;5061269;28;20100;-80
2022/11/09 07:13:26;;;;;;;8.07;2.60;;;;;;;;;;5060128;28;20103;-80
2022/11/09 07:15:53;;;;;;;5.23;2.23;;;;;;;;;;5058327;28;20220;-81
2022/11/09 07:18:18;;;;;;;7.57;2.22;;;;;;;;;;5057742;28;20294;-80
2022/11/09 07:20:43;;;;;;;5.77;2.13;;;;;;;;;;5057822;28;20593;-79
2022/11/09 07:23:08;;;;;;;6.77;2.23;;;;;;;;;;5066022;28;20255;-78
2022/11/09 07:25:34;;;;;;;6.87;2.70;;;;;;;;;;5074007;28;20274;-77
2022/11/09 07:28:03;;;;;;;6.07;2.40;;;;;;;;;;5059722;28;20307;-81
2022/11/09 07:30:29;;;;;;;5.15;2.40;;;;;;;;;;5060412;28;20017;-81
2022/11/09 07:32:54;;;;;;;5.80;2.55;;;;;;;;;;5071034;28;20025;-80
2022/11/09 07:35:19;;;;;;;7.78;2.78;;;;;;;;;;5061346;28;20013;-77
2022/11/09 07:37:44;;;;;;;7.30;2.65;;;;;;;;;;5073912;28;20028;-80
2022/11/09 07:40:10;;;;;;;8.27;2.90;;;;;;;;;;5059737;28;20017;-77
2022/11/09 07:42:35;;;;;;;6.22;2.67;;;;;;;;;;5061703;28;20070;-75
2022/11/09 07:45:00;;;;;;;8.60;2.60;;;;;;;;;;5064633;28;20903;-79
2022/11/09 07:47:25;;;;;;;9.10;2.50;;;;;;;;;;5045667;28;20295;-75
2022/11/09 07:49:51;;;;;;;8.85;2.70;;;;;;;;;;5052240;28;20290;-75
2022/11/09 07:52:16;;;;;;;5.83;2.00;;;;;;;;;;5050543;28;20025;-76
2022/11/09 07:54:41;;;;;;;8.53;2.80;;;;;;;;;;5052583;28;20275;-76
2022/11/09 07:57:06;;;;;;;11.30;2.92;;;;;;;;;;5053538;28;20266;-77
2022/11/09 07:59:32;;;;;;;8.73;2.73;;;;;;;;;;5056436;28;20032;-77
2022/11/09 08:01:57;;;;;;;6.75;2.80;;;;;;;;;;5068522;28;20323;-72
2022/11/09 08:04:23;;;;;;;5.78;2.47;;;;;;;;;;5061988;28;20124;-76
2022/11/09 08:06:50;;;;;;;8.13;2.33;;;;;;;;;;5063309;28;20898;-76
2022/11/09 08:09:15;;;;;;;6.75;2.58;;;;;;;;;;5056338;28;20034;-76
2022/11/09 08:11:41;;;;;;;6.50;3.00;;;;;;;;;;5083902;28;20016;-81
2022/11/09 08:14:06;;;;;;;8.57;2.53;;;;;;;;;;5058967;28;20305;-81
2022/11/09 08:16:31;;;;;;;12.25;2.90;;;;;;;;;;5069931;28;20331;-80
2022/11/09 08:18:56;;;;;;;5.90;2.03;;;;;;;;;;5060031;28;20470;-82
2022/11/09 08:21:22;;;;;;;9.07;2.57;;;;;;;;;;5048151;28;20140;-80
2022/11/09 08:23:47;;;;;;;9.57;2.88;;;;;;;;;;5045035;28;20266;-82
2022/11/09 08:26:12;;;;;;;5.10;2.03;;;;;;;;;;5060950;28;20052;-80
2022/11/09 08:28:38;;;;;;;10.57;2.73;;;;;;;;;;5052239;28;20036;-80
2022/11/09 08:31:04;;;;;;;11.30;2.40;;;;;;;;;;5060203;28;20285;-78
2022/11/09 08:33:31;;;;;;;10.70;2.58;;;;;;;;;;5057304;28;20044;-79
2022/11/09 08:35:57;;;;;;;15.30;3.17;;;;;;;;;;5059728;28;20024;-79
2022/11/09 08:38:22;;;;;;;6.43;2.13;;;;;;;;;;5074799;28;20520;-78
2022/11/09 08:40:47;;;;;;;7.18;2.22;;;;;;;;;;5068955;28;20304;-72
2022/11/09 08:43:12;;;;;;;11.40;2.90;;;;;;;;;;5054942;28;20115;-81
2022/11/09 08:45:38;;;;;;;5.82;2.38;;;;;;;;;;5043770;28;20024;-79
2022/11/09 08:48:04;;;;;;;9.75;2.58;;;;;;;;;;5052170;28;20070;-82
2022/11/09 08:50:30;;;;;;;10.85;3.40;;;;;;;;;;5056121;28;20141;-76
2022/11/09 08:52:55;;;;;;;12.48;2.83;;;;;;;;;;5053550;28;20086;-79
2022/11/09 08:55:21;;;;;;;8.27;2.85;;;;;;;;;;5041774;28;20027;-76
2022/11/09 08:57:46;;;;;;;7.40;3.30;;;;;;;;;;5045734;28;20116;-75
2022/11/09 09:00:12;;;;;;;11.48;3.03;;;;;;;;;;5049744;28;20019;-78
2022/11/09 09:02:37;;;;;;;8.35;2.95;;;;;;;;;;5047888;28;20106;-78
2022/11/09 09:05:02;;;;;;;9.10;3.33;;;;;;;;;;5050724;28;20942;-77
2022/11/09 09:07:28;;;;;;;10.93;2.72;;;;;;;;;;5036086;28;20897;-73
2022/11/09 09:09:53;;;;;;;7.70;3.07;;;;;;;;;;5044778;28;20025;-75
2022/11/09 09:12:18;;;;;;;7.30;2.85;;;;;;;;;;5049893;28;20298;-76
2022/11/09 09:14:43;;;;;;;7.63;2.97;;;;;;;;;;5047053;28;20870;-77
2022/11/09 09:17:09;;;;;;;5.40;2.00;;;;;;;;;;5052850;28;20556;-76
2022/11/09 09:19:34;;;;;;;8.80;3.28;;;;;;;;;;5036130;28;20016;-77
2022/11/09 09:22:00;;;;;;;6.07;2.20;;;;;;;;;;5046782;28;20024;-78
2022/11/09 09:24:25;;;;;;;11.25;2.42;;;;;;;;;;5041822;28;20025;-74
2022/11/09 09:26:51;;;;;;;8.48;2.88;;;;;;;;;;5029857;28;20020;-75
2022/11/09 09:29:16;;;;;;;11.77;2.27;;;;;;;;;;5036322;28;20873;-76
2022/11/09 09:31:41;;;;;;;7.82;2.47;;;;;;;;;;5046993;28;20267;-72
2022/11/09 09:34:06;;;;;;;6.93;2.10;;;;;;;;;;5057143;28;20558;-71
2022/11/09 09:36:34;;;;;;;19.42;2.22;;;;;;;;;;5044365;28;20282;-74
2022/11/09 09:38:59;;;;;;;5.00;1.67;;;;;;;;;;5048871;28;20017;-75
2022/11/09 09:41:33;;;;;;;5.53;2.50;;;;;;;;;;5045458;28;20041;-77
2022/11/09 09:44:04;;;;;;;6.13;2.15;;;;;;;;;;5058942;28;21203;-79
2022/11/09 09:46:50;;;;;;;11.70;3.67;;;;;;;;;;5053742;28;20913;-73
2022/11/09 09:49:21;;;;;;;9.38;2.47;;;;;;;;;;5039226;28;20049;-75
2022/11/09 09:51:50;;;;;;;6.45;2.55;;;;;;;;;;5043083;28;20068;-75
2022/11/09 09:54:18;;;;;;;11.65;3.08;;;;;;;;;;5044712;28;20099;-76
2022/11/09 09:56:45;;;;;;;7.57;2.20;;;;;;;;;;5057559;28;20070;-74
2022/11/09 09:59:26;;;;;;;10.45;2.45;;;;;;;;;;5061460;28;20016;-75
2022/11/09 10:01:52;;;;;;;5.25;2.50;;;;;;;;;;5065831;28;20075;-75
2022/11/09 10:04:21;;;;;;;7.53;2.55;;;;;;;;;;5058401;28;20013;-77
2022/11/09 10:06:49;;;;;;;12.95;2.75;;;;;;;;;;5056792;28;20024;-73
2022/11/09 10:09:24;;;;;;;6.80;2.00;;;;;;;;;;5064923;28;20119;-75
2022/11/09 10:12:14;;;;;;;5.13;2.28;;;;;;;;;;5053763;28;20020;-75
2022/11/09 10:14:43;;;;;;;6.20;2.33;;;;;;;;;;5049112;28;20024;-74
2022/11/09 10:17:08;;;;;;;6.75;2.47;;;;;;;;;;5052108;28;20027;-73
2022/11/09 10:19:38;;;;;;;6.80;2.60;;;;;;;;;;5058199;28;20016;-77
2022/11/09 10:22:10;;;;;;;8.15;2.78;;;;;;;;;;5061108;28;20024;-74
2022/11/09 10:24:44;;;;;;;5.75;2.45;;;;;;;;;;5054493;28;20107;-75
2022/11/09 10:27:34;;;;;;;6.35;2.47;;;;;;;;;;5054355;28;20508;-76
2022/11/09 10:30:00;;;;;;;18.58;3.20;;;;;;;;;;5042379;28;20102;-75
2022/11/09 10:32:28;;;;;;;5.30;2.03;;;;;;;;;;5048902;28;20025;-75
2022/11/09 10:35:02;;;;;;;8.95;2.83;;;;;;;;;;5025490;28;20892;-77
2022/11/09 10:37:27;;;;;;;;;;;;;;;;;;5032334;28;20025;-75
2022/11/09 10:40:02;;;;;;;13.85;2.72;;;;;;;;;;5028209;28;19921;-69
2022/11/09 10:42:27;;;;;;;13.95;2.65;;;;;;;;;;5029420;28;20077;-72
2022/11/09 10:44:52;;;;;;;9.30;2.55;;;;;;;;;;5030015;28;20032;-76
2022/11/09 10:47:18;;;;;;;7.20;2.83;;;;;;;;;;5022313;28;20035;-75
2022/11/09 10:49:43;;;;;;;9.20;2.97;;;;;;;;;;5029284;28;20342;-73
2022/11/09 10:52:29;;;;;;;9.13;3.80;;;;;;;;;;5031159;28;20013;-79
2022/11/09 10:55:14;;;;;;;15.40;3.65;;;;;;;;;;5021615;28;20139;-74
2022/11/09 10:57:49;;;;;;;10.20;3.60;;;;;;;;;;5030132;28;20054;-75
2022/11/09 11:00:15;;;;;;;14.98;4.50;;;;;;;;;;5031690;28;20434;-76
2022/11/09 11:02:42;;;;;;;9.98;4.03;;;;;;;;;;5040123;28;20024;-75
2022/11/09 11:05:07;;;;;;;10.32;3.22;;;;;;;;;;5028250;28;20785;-74
2022/11/09 11:07:33;;;;;;;6.37;2.63;;;;;;;;;;5032570;28;20023;-76
2022/11/09 11:10:10;;;;;;;6.82;3.40;;;;;;;;;;5032668;28;20056;-73
2022/11/09 11:12:36;;;;;;;5.85;2.50;;;;;;;;;;5041022;28;20916;-76
2022/11/09 11:15:01;;;;;;;18.73;3.33;;;;;;;;;;5030955;28;20020;-73
2022/11/09 11:17:28;;;;;;;9.82;3.13;;;;;;;;;;5031402;28;20021;-78
2022/11/09 11:19:53;;;;;;;9.50;2.75;;;;;;;;;;5024106;28;20029;-73
2022/11/09 11:22:23;;;;;;;12.00;2.90;;;;;;;;;;5025054;28;20773;-73
2022/11/09 11:24:58;;;;;;;8.43;2.40;;;;;;;;;;5032366;28;20024;-74
2022/11/09 11:27:42;;;;;;;7.32;3.17;;;;;;;;;;5028419;28;20139;-73
2022/11/09 11:30:10;;;;;;;4.93;1.90;;;;;;;;;;5024664;28;20025;-74
2022/11/09 11:32:36;;;;;;;11.57;2.40;;;;;;;;;;5028206;28;20040;-73
2022/11/09 11:35:15;;;;;;;10.27;3.67;;;;;;;;;;5031589;28;20021;-75
2022/11/09 11:37:46;;;;;;;7.05;2.60;;;;;;;;;;5031453;28;20286;-74
2022/11/09 11:40:37;;;;;;;9.23;2.83;;;;;;;;;;5031674;28;20951;-74
2022/11/09 11:43:26;;;;;;;8.68;2.85;;;;;;;;;;5019137;28;20024;-72
2022/11/09 11:45:54;;;;;;;13.32;2.97;;;;;;;;;;5011009;28;20032;-74
2022/11/09 11:48:25;;;;;;;10.07;2.95;;;;;;;;;;5032857;28;20022;-72
2022/11/09 11:51:09;;;;;;;10.93;2.55;;;;;;;;;;5030059;28;20864;-73
2022/11/09 11:53:53;;;;;;;11.27;3.55;;;;;;;;;;5031502;28;20131;-72
2022/11/09 11:56:19;;;;;;;10.90;3.03;;;;;;;;;;5029495;28;20028;-73
2022/11/09 11:58:44;;;;;;;10.07;2.83;;;;;;;;;;5029725;28;20132;-72
2022/11/09 12:01:09;;;;;;;9.30;2.53;;;;;;;;;;5030927;28;20308;-72
2022/11/09 12:03:40;;;;;;;19.27;2.30;;;;;;;;;;5030210;28;20273;-73
2022/11/09 12:06:20;;;;;;;13.07;3.10;;;;;;;;;;5028908;28;20020;-73
2022/11/09 12:09:04;;;;;;;8.27;2.70;;;;;;;;;;5018271;28;20069;-72
2022/11/09 12:11:50;;;;;;;6.00;2.90;;;;;;;;;;5028467;28;20107;-72
2022/11/09 12:14:21;;;;;;;6.93;3.03;;;;;;;;;;5019754;28;20035;-77
2022/11/09 12:16:59;;;;;;;9.90;3.30;;;;;;;;;;5037693;28;20807;-75
2022/11/09 12:19:31;;;;;;;11.30;2.70;;;;;;;;;;5030132;28;20028;-75
2022/11/09 12:22:06;;;;;;;9.95;3.15;;;;;;;;;;5030477;28;20017;-69
2022/11/09 12:24:40;;;;;;;15.82;2.75;;;;;;;;;;5029465;28;20013;-76
2022/11/09 12:27:07;;;;;;;;;;;;;;;;;;5041353;28;20027;-74
2022/11/09 12:29:45;;;;;;;7.47;2.97;;;;;;;;;;5030165;28;19978;-73
2022/11/09 12:32:23;;;;;;;4.75;2.13;;;;;;;;;;5040871;28;20075;-73
2022/11/09 12:35:00;;;;;;;8.27;3.00;;;;;;;;;;5028887;28;20048;-72
2022/11/09 12:37:28;;;;;;;8.77;3.47;;;;;;;;;;5037979;28;20024;-72
2022/11/09 12:39:54;;;;;;;8.02;2.85;;;;;;;;;;5018715;28;20021;-73
2022/11/09 12:42:24;;;;;;;7.90;2.38;;;;;;;;;;5032781;28;20015;-72
2022/11/09 12:44:57;;;;;;;11.15;3.13;;;;;;;;;;5032719;28;20020;-73
2022/11/09 12:47:24;;;;;;;10.10;3.38;;;;;;;;;;5025924;28;20021;-74
2022/11/09 12:49:49;;;;;;;8.00;3.20;;;;;;;;;;5025062;28;20020;-74
2022/11/09 12:52:18;;;;;;;8.48;2.40;;;;;;;;;;5021053;28;20055;-73
2022/11/09 12:54:45;;;;;;;6.68;2.33;;;;;;;;;;5031166;28;20031;-73
2022/11/09 12:57:14;;;;;;;9.20;3.50;;;;;;;;;;5031691;28;20019;-66
2022/11/09 12:59:47;;;;;;;6.10;2.85;;;;;;;;;;5037267;28;20024;-72
2022/11/09 13:02:22;;;;;;;7.97;3.23;;;;;;;;;;5025120;28;20055;-73
2022/11/09 13:04:47;;;;;;;;;;;;;;;;;;5044096;28;20032;-72
2022/11/09 13:07:17;;;;;;;5.67;2.60;;;;;;;;;;5029874;28;19970;-74
2022/11/09 13:09:42;;;;;;;18.05;3.10;;;;;;;;;;5033326;28;20036;-73
2022/11/09 13:12:18;;;;;;;11.20;3.17;;;;;;;;;;5043541;28;20440;-73
2022/11/09 13:14:43;;;;;;;8.90;2.97;;;;;;;;;;5067559;28;21482;-72
2022/11/09 13:17:18;;;;;;;7.97;2.88;;;;;;;;;;5062423;28;20032;-73
2022/11/09 13:19:43;;;;;;;6.85;3.05;;;;;;;;;;5048711;28;20047;-74
2022/11/09 13:22:14;;;;;;;8.67;2.60;;;;;;;;;;5053644;28;20021;-74
2022/11/09 13:24:49;;;;;;;8.60;2.22;;;;;;;;;;5058717;28;20279;-75
2022/11/09 13:27:14;;;;;;;;;;;;;;;;;;5059087;28;20016;-74
2022/11/09 13:29:39;;;;;;;4.68;1.85;;;;;;;;;;5065211;28;19919;-74
2022/11/09 13:32:07;;;;;;;7.20;2.87;;;;;;;;;;5056217;28;21206;-73
2022/11/09 13:34:48;;;;;;;7.38;2.33;;;;;;;;;;5061948;28;20263;-72
2022/11/09 13:37:32;;;;;;;9.30;2.78;;;;;;;;;;5054190;28;20493;-73
2022/11/09 13:39:57;;;;;;;12.35;2.40;;;;;;;;;;5061309;28;20024;-73
2022/11/09 13:42:25;;;;;;;9.68;2.78;;;;;;;;;;5058888;28;20032;-72
2022/11/09 13:44:50;;;;;;;4.03;1.77;;;;;;;;;;5055467;28;20467;-72
2022/11/09 13:47:24;;;;;;;7.35;2.70;;;;;;;;;;5054696;28;20032;-73
2022/11/09 13:49:49;;;;;;;4.22;1.92;;;;;;;;;;5061236;28;20029;-76
2022/11/09 13:52:34;;;;;;;7.72;2.88;;;;;;;;;;5036303;28;20844;-75
2022/11/09 13:54:59;;;;;;;10.50;3.28;;;;;;;;;;5025198;28;20025;-75
2022/11/09 13:57:25;;;;;;;7.70;2.63;;;;;;;;;;5053467;28;20028;-75
2022/11/09 13:59:51;;;;;;;10.45;2.78;;;;;;;;;;5073870;28;20025;-72
2022/11/09 14:02:18;;;;;;;9.10;2.58;;;;;;;;;;5071225;28;20016;-73
2022/11/09 14:04:43;;;;;;;6.75;2.70;;;;;;;;;;5040710;28;20792;-73
2022/11/09 14:07:29;;;;;;;10.52;2.33;;;;;;;;;;5069204;28;20032;-73
2022/11/09 14:10:13;;;;;;;6.88;2.50;;;;;;;;;;5059806;28;20028;-74
2022/11/09 14:12:47;;;;;;;7.87;3.40;;;;;;;;;;5066605;28;20505;-73
2022/11/09 14:15:23;;;;;;;9.43;2.85;;;;;;;;;;5079965;28;20353;-72
2022/11/09 14:17:48;;;;;;;5.72;2.13;;;;;;;;;;5074671;28;20078;-71
2022/11/09 14:20:24;;;;;;;9.18;2.75;;;;;;;;;;5065390;28;20055;-72
2022/11/09 14:22:50;;;;;;;4.45;2.05;;;;;;;;;;5073544;28;20013;-75
2022/11/09 14:25:16;;;;;;;7.50;2.92;;;;;;;;;;5057592;28;20035;-72
2022/11/09 14:27:45;;;;;;;8.95;2.63;;;;;;;;;;5072482;28;20023;-72
2022/11/09 14:30:21;;;;;;;7.70;2.83;;;;;;;;;;5072491;28;20029;-72
2022/11/09 14:32:50;;;;;;;7.72;2.67;;;;;;;;;;5060351;28;20042;-72
2022/11/09 14:35:21;;;;;;;9.27;3.08;;;;;;;;;;5074432;28;20024;-73
2022/11/09 14:37:47;;;;;;;7.95;2.88;;;;;;;;;;5087514;28;20077;-72
2022/11/09 14:40:26;;;;;;;10.30;2.58;;;;;;;;;;5073306;28;20020;-72
2022/11/09 14:42:58;;;;;;;10.10;2.63;;;;;;;;;;5075144;28;20034;-74
2022/11/09 14:45:24;;;;;;;13.95;2.65;;;;;;;;;;5068145;28;20099;-75